createdAt,value
2022-10-23T00:01:16.855Z,11.35
2022-10-23T00:03:44.606Z,9.85
2022-10-23T00:06:12.467Z,6.28
2022-10-23T00:08:39.826Z,8.85
2022-10-23T00:11:11.440Z,10.10
2022-10-23T00:13:38.671Z,8.05
2022-10-23T00:16:05.844Z,7.78
2022-10-23T00:18:33.140Z,7.57
2022-10-23T00:21:00.133Z,7.80
2022-10-23T00:23:26.869Z,6.82
2022-10-23T00:25:53.510Z,7.57
2022-10-23T00:28:22.719Z,6.43
2022-10-23T00:30:49.536Z,6.63
2022-10-23T00:33:16.430Z,5.32
2022-10-23T00:35:43.317Z,8.85
2022-10-23T00:38:13.002Z,5.18
2022-10-23T00:40:44.064Z,14.35
2022-10-23T00:43:26.354Z,7.85
2022-10-23T00:45:55.486Z,5.65
2022-10-23T00:48:22.651Z,9.63
2022-10-23T00:50:50.157Z,8.13
2022-10-23T00:53:18.962Z,7.78
2022-10-23T00:55:48.972Z,8.48
2022-10-23T00:58:18.506Z,6.57
2022-10-23T01:00:48.697Z,6.43
2022-10-23T01:03:18.238Z,7.32
2022-10-23T01:05:51.783Z,8.45
2022-10-23T01:08:28.670Z,7.72
2022-10-23T01:11:12.560Z,13.82
2022-10-23T01:16:50.850Z,8.75
2022-10-23T01:19:43.604Z,7.18
2022-10-23T01:25:03.063Z,5.53
2022-10-23T01:27:39.944Z,5.55
2022-10-23T01:30:09.748Z,10.98
2022-10-23T01:32:51.058Z,8.15
2022-10-23T01:35:24.851Z,8.65
2022-10-23T01:38:14.376Z,6.70
2022-10-23T01:40:53.388Z,10.85
2022-10-23T01:43:35.244Z,11.38
2022-10-23T01:46:06.555Z,8.82
2022-10-23T01:48:36.509Z,5.93
2022-10-23T01:51:09.793Z,7.90
2022-10-23T01:53:41.609Z,7.30
2022-10-23T01:56:12.098Z,9.45
2022-10-23T01:58:42.574Z,8.23
2022-10-23T02:01:12.741Z,4.82
2022-10-23T02:03:42.715Z,8.75
2022-10-23T02:06:09.584Z,5.57
2022-10-23T02:08:38.531Z,7.50
2022-10-23T02:11:12.789Z,9.63
2022-10-23T02:14:11.765Z,6.90
2022-10-23T02:16:53.472Z,5.55
2022-10-23T02:19:29.302Z,8.50
2022-10-23T02:22:11.067Z,9.02
2022-10-23T02:24:43.335Z,7.15
2022-10-23T02:27:19.174Z,10.63
2022-10-23T02:29:52.237Z,9.35
2022-10-23T02:32:22.462Z,11.48
2022-10-23T02:34:52.163Z,9.90
2022-10-23T02:39:55.389Z,7.35
2022-10-23T02:42:41.243Z,7.32
2022-10-23T02:45:16.813Z,6.25
2022-10-23T02:48:34.075Z,5.80
2022-10-23T02:51:07.882Z,8.60
2022-10-23T02:53:43.290Z,6.10
2022-10-23T02:56:23.055Z,4.93
2022-10-23T02:59:11.463Z,9.10
2022-10-23T03:02:02.827Z,8.95
2022-10-23T03:04:31.757Z,7.22
2022-10-23T03:06:58.509Z,5.63
2022-10-23T03:09:26.882Z,8.27
2022-10-23T03:11:56.232Z,6.53
2022-10-23T03:14:22.883Z,7.40
2022-10-23T03:16:49.688Z,5.35
2022-10-23T03:19:16.407Z,6.57
2022-10-23T03:21:43.171Z,8.95
2022-10-23T03:24:09.916Z,7.93
2022-10-23T03:26:36.592Z,8.60
2022-10-23T03:29:03.252Z,6.25
2022-10-23T03:31:29.849Z,11.10
2022-10-23T03:33:56.385Z,7.93
2022-10-23T03:36:22.965Z,7.38
2022-10-23T03:38:50.986Z,9.20
2022-10-23T03:41:17.573Z,8.93
2022-10-23T03:43:44.145Z,10.25
2022-10-23T03:46:12.884Z,11.23
2022-10-23T03:48:39.635Z,5.57
2022-10-23T03:51:06.614Z,6.05
2022-10-23T03:53:33.390Z,5.90
2022-10-23T03:56:02.572Z,7.88
2022-10-23T03:58:29.258Z,6.70
2022-10-23T04:00:56.099Z,6.40
2022-10-23T04:03:23.088Z,10.13
2022-10-23T04:05:52.224Z,6.60
2022-10-23T04:08:20.173Z,11.50
2022-10-23T04:10:46.974Z,5.10
2022-10-23T04:13:13.732Z,7.63
2022-10-23T04:15:47.491Z,7.50
2022-10-23T04:18:14.184Z,5.43
2022-10-23T04:20:40.914Z,9.88
2022-10-23T04:23:07.597Z,8.75
2022-10-23T04:25:34.315Z,6.65
2022-10-23T04:28:01.135Z,8.45
2022-10-23T04:30:27.771Z,8.70
2022-10-23T04:32:54.449Z,8.10
2022-10-23T04:35:20.972Z,8.98
2022-10-23T04:37:47.706Z,8.30
2022-10-23T04:40:14.371Z,6.68
2022-10-23T04:42:41.327Z,6.65
2022-10-23T04:45:08.454Z,7.18
2022-10-23T04:47:35.090Z,10.10
2022-10-23T04:50:02.299Z,7.97
2022-10-23T04:52:28.986Z,8.10
2022-10-23T04:54:55.685Z,7.10
2022-10-23T04:57:22.414Z,10.30
2022-10-23T04:59:49.090Z,7.80
2022-10-23T05:02:18.909Z,5.22
2022-10-23T05:04:46.549Z,9.03
2022-10-23T05:07:16.554Z,5.90
2022-10-23T05:09:43.371Z,7.28
2022-10-23T05:12:10.220Z,6.43
2022-10-23T05:14:36.840Z,6.28
2022-10-23T05:17:14.376Z,6.70
2022-10-23T05:19:45.402Z,8.27
2022-10-23T05:22:13.496Z,6.38
2022-10-23T05:24:40.494Z,8.65
2022-10-23T05:27:10.338Z,9.90
2022-10-23T05:29:36.970Z,5.17
2022-10-23T05:32:11.757Z,5.40
2022-10-23T05:34:40.329Z,5.60
2022-10-23T05:37:10.726Z,5.13
2022-10-23T05:39:37.829Z,7.70
2022-10-23T05:42:04.816Z,8.82
2022-10-23T05:44:33.250Z,7.63
2022-10-23T05:46:59.978Z,6.72
2022-10-23T05:49:26.787Z,11.60
2022-10-23T05:51:53.541Z,9.52
2022-10-23T05:54:20.253Z,6.78
2022-10-23T05:56:47.054Z,8.02
2022-10-23T05:59:13.794Z,7.47
2022-10-23T06:01:40.655Z,6.07
2022-10-23T06:04:07.569Z,7.78
2022-10-23T06:06:37.490Z,8.68
2022-10-23T06:09:05.199Z,6.78
2022-10-23T06:11:31.932Z,7.40
2022-10-23T06:14:00.905Z,6.63
2022-10-23T06:16:28.117Z,5.60
2022-10-23T06:18:55.354Z,6.05
2022-10-23T06:21:22.373Z,6.65
2022-10-23T06:23:49.297Z,6.15
2022-10-23T06:26:18.415Z,6.40
2022-10-23T06:28:47.393Z,4.60
2022-10-23T06:31:19.269Z,6.80
2022-10-23T06:33:52.572Z,7.47
2022-10-23T06:36:19.513Z,5.43
2022-10-23T06:38:46.317Z,4.85
2022-10-23T06:41:19.254Z,6.15
2022-10-23T06:43:49.702Z,7.10
2022-10-23T06:46:18.073Z,8.80
2022-10-23T06:48:45.271Z,7.22
2022-10-23T06:51:14.173Z,7.03
2022-10-23T06:53:40.945Z,5.63
2022-10-23T06:56:08.908Z,5.85
2022-10-23T06:58:37.668Z,5.82
2022-10-23T07:01:07.978Z,4.10
2022-10-23T07:03:35.245Z,8.05
2022-10-23T07:06:03.581Z,5.72
2022-10-23T07:08:30.482Z,5.53
2022-10-23T07:10:57.471Z,7.95
2022-10-23T07:13:25.022Z,6.18
2022-10-23T07:15:54.042Z,6.53
2022-10-23T07:18:21.179Z,7.20
2022-10-23T07:20:49.630Z,4.13
2022-10-23T07:23:18.511Z,6.28
2022-10-23T07:25:45.428Z,5.32
2022-10-23T07:28:12.516Z,4.47
2022-10-23T07:30:41.080Z,6.07
2022-10-23T07:33:12.550Z,5.10
2022-10-23T07:35:41.145Z,5.50
2022-10-23T07:38:08.196Z,3.70
2022-10-23T07:40:38.287Z,4.47
2022-10-23T07:43:05.564Z,5.57
2022-10-23T07:45:33.650Z,5.70
2022-10-23T07:48:00.485Z,4.60
2022-10-23T07:50:27.251Z,5.18
2022-10-23T07:52:54.950Z,6.65
2022-10-23T07:55:24.887Z,3.78
2022-10-23T07:57:51.731Z,5.25
2022-10-23T08:00:18.698Z,5.25
2022-10-23T08:02:45.525Z,4.50
2022-10-23T08:05:12.465Z,4.90
2022-10-23T08:07:40.700Z,4.63
2022-10-23T08:10:07.932Z,5.40
2022-10-23T08:12:37.303Z,5.18
2022-10-23T08:15:04.598Z,3.97
2022-10-23T08:17:33.466Z,4.20
2022-10-23T08:20:00.383Z,5.30
2022-10-23T08:22:27.313Z,5.75
2022-10-23T08:24:54.362Z,4.13
2022-10-23T08:27:23.941Z,2.97
2022-10-23T08:29:50.687Z,5.07
2022-10-23T08:32:17.446Z,3.22
2022-10-23T08:34:44.119Z,3.72
2022-10-23T08:37:10.853Z,3.95
2022-10-23T08:39:39.754Z,5.50
2022-10-23T08:42:06.653Z,6.85
2022-10-23T08:45:03.374Z,3.25
2022-10-23T08:47:42.771Z,4.57
2022-10-23T08:53:25.623Z,2.40
2022-10-23T08:56:06.898Z,3.55
2022-10-23T08:58:46.175Z,3.90
2022-10-23T09:01:36.691Z,5.15
2022-10-23T09:06:40.390Z,3.80
2022-10-23T09:09:36.300Z,5.78
2022-10-23T09:12:14.005Z,5.22
2022-10-23T09:14:40.556Z,3.42
2022-10-23T09:17:26.323Z,4.13
2022-10-23T09:20:25.937Z,3.53
2022-10-23T09:23:20.875Z,2.77
2022-10-23T09:25:51.908Z,3.92
2022-10-23T09:28:26.061Z,4.65
2022-10-23T09:30:53.336Z,4.82
2022-10-23T09:33:22.210Z,3.17
2022-10-23T09:35:56.663Z,5.60
2022-10-23T09:38:36.178Z,2.60
2022-10-23T09:41:27.711Z,2.90
2022-10-23T09:44:20.407Z,3.30
2022-10-23T09:47:08.932Z,5.57
2022-10-23T09:49:35.876Z,2.95
2022-10-23T09:52:04.866Z,4.07
2022-10-23T09:54:54.337Z,3.67
2022-10-23T09:57:28.452Z,4.65
2022-10-23T10:00:01.416Z,2.97
2022-10-23T10:02:34.486Z,4.35
2022-10-23T10:05:32.031Z,4.55
2022-10-23T10:08:24.719Z,4.65
2022-10-23T10:11:07.043Z,2.30
2022-10-23T10:13:33.672Z,3.70
2022-10-23T10:16:07.080Z,5.57
2022-10-23T10:18:43.297Z,10.98
2022-10-23T10:21:27.915Z,12.32
2022-10-23T10:24:08.562Z,9.60
2022-10-23T10:26:52.206Z,4.20
2022-10-23T10:29:25.746Z,3.72
2022-10-23T10:31:58.387Z,5.82
2022-10-23T10:34:54.143Z,4.93
2022-10-23T10:37:58.355Z,6.40
2022-10-23T10:40:31.543Z,2.30
2022-10-23T10:43:23.118Z,1.80
2022-10-23T10:46:00.986Z,4.38
2022-10-23T10:51:08.416Z,2.15
2022-10-23T10:54:02.837Z,4.65
2022-10-23T10:56:33.482Z,3.10
2022-10-23T10:59:04.797Z,2.65
2022-10-23T11:02:23.527Z,3.83
2022-10-23T11:11:52.486Z,2.97
2022-10-23T11:14:51.463Z,2.83
2022-10-23T11:18:33.038Z,1.35
2022-10-23T11:21:50.073Z,2.10
2022-10-23T11:24:58.160Z,7.15
2022-10-23T11:28:47.289Z,4.35
2022-10-23T11:31:22.940Z,1.77
2022-10-23T11:34:04.383Z,4.65
2022-10-23T11:36:57.542Z,3.05
2022-10-23T11:40:06.337Z,1.88
2022-10-23T11:43:17.550Z,2.45
2022-10-23T11:46:02.622Z,2.97
2022-10-23T11:48:40.021Z,4.53
2022-10-23T11:51:31.006Z,2.80
2022-10-23T11:54:07.662Z,1.55
2022-10-23T11:57:03.208Z,3.10
2022-10-23T11:59:36.011Z,1.90
2022-10-23T12:02:28.015Z,3.22
2022-10-23T12:04:56.592Z,3.15
2022-10-23T12:07:45.268Z,3.95
2022-10-23T12:10:41.351Z,4.18
2022-10-23T12:13:49.901Z,3.85
2022-10-23T12:17:02.315Z,3.67
2022-10-23T12:19:49.889Z,3.20
2022-10-23T12:23:01.809Z,4.43
2022-10-23T12:26:06.111Z,2.45
2022-10-23T12:33:31.708Z,4.53
2022-10-23T12:53:11.864Z,2.92
2022-10-23T12:57:35.334Z,3.33
2022-10-23T13:01:04.006Z,9.63
2022-10-23T13:03:53.569Z,4.32
2022-10-23T13:07:06.173Z,5.10
2022-10-23T13:09:50.035Z,6.35
2022-10-23T13:12:27.232Z,4.30
2022-10-23T13:15:01.974Z,4.90
2022-10-23T13:17:42.270Z,4.53
2022-10-23T13:20:18.486Z,2.60
2022-10-23T13:22:54.186Z,2.90
2022-10-23T13:25:28.435Z,9.63
2022-10-23T13:28:23.085Z,4.07
2022-10-23T13:31:00.703Z,3.15
2022-10-23T13:33:35.329Z,5.97
2022-10-23T13:36:23.800Z,5.18
2022-10-23T13:38:59.958Z,3.58
2022-10-23T13:41:31.286Z,9.20
2022-10-23T13:43:58.090Z,10.40
2022-10-23T13:46:28.196Z,8.38
2022-10-23T13:48:55.027Z,2.65
2022-10-23T13:51:27.559Z,9.80
2022-10-23T13:53:55.661Z,15.23
2022-10-23T13:56:24.245Z,8.82
2022-10-23T13:58:51.131Z,6.38
2022-10-23T14:01:28.430Z,3.05
2022-10-23T14:03:57.304Z,4.00
2022-10-23T14:06:24.340Z,4.13
2022-10-23T14:08:51.439Z,3.25
2022-10-23T14:11:19.872Z,3.67
2022-10-23T14:13:48.926Z,2.72
2022-10-23T14:16:20.252Z,4.63
2022-10-23T14:18:50.668Z,4.75
2022-10-23T14:21:21.993Z,4.45
2022-10-23T14:23:50.405Z,8.13
2022-10-23T14:26:20.380Z,3.67
2022-10-23T14:28:53.387Z,4.63
2022-10-23T14:31:21.113Z,4.07
2022-10-23T14:33:53.407Z,6.07
2022-10-23T14:36:20.262Z,5.05
2022-10-23T14:38:47.200Z,3.30
2022-10-23T14:41:16.753Z,2.65
2022-10-23T14:43:44.033Z,7.65
2022-10-23T14:46:16.101Z,2.60
2022-10-23T14:48:46.209Z,5.25
2022-10-23T14:51:21.179Z,4.05
2022-10-23T14:53:49.530Z,3.70
2022-10-23T14:56:16.508Z,7.40
2022-10-23T14:58:44.550Z,5.22
2022-10-23T15:01:14.758Z,4.40
2022-10-23T15:06:11.814Z,6.70
2022-10-23T15:08:40.449Z,3.92
2022-10-23T15:11:12.592Z,5.45
2022-10-23T15:13:39.536Z,9.82
2022-10-23T15:16:09.327Z,4.28
2022-10-23T15:21:08.977Z,7.28
2022-10-23T15:23:38.256Z,4.65
2022-10-23T15:26:08.852Z,5.93
2022-10-23T15:28:35.801Z,5.75
2022-10-23T15:31:05.402Z,6.18
2022-10-23T15:33:32.168Z,5.32
2022-10-23T15:35:58.836Z,6.05
2022-10-23T15:38:26.115Z,7.80
2022-10-23T15:41:03.911Z,5.97
2022-10-23T15:43:30.714Z,4.55
2022-10-23T15:45:59.745Z,4.68
2022-10-23T15:48:26.578Z,5.53
2022-10-23T15:50:53.377Z,6.40
2022-10-23T15:53:20.308Z,4.80
2022-10-23T15:55:49.510Z,10.55
2022-10-23T15:58:20.819Z,7.22
2022-10-23T16:00:50.055Z,6.35
2022-10-23T16:03:16.753Z,6.82
2022-10-23T16:05:46.610Z,14.50
2022-10-23T16:08:13.343Z,9.48
2022-10-23T16:10:43.420Z,4.35
2022-10-23T16:13:10.220Z,9.25
2022-10-23T16:15:38.307Z,9.48
2022-10-23T16:18:07.193Z,7.80
2022-10-23T16:20:33.849Z,7.90
2022-10-23T16:23:00.603Z,6.90
2022-10-23T16:25:27.530Z,8.10
2022-10-23T16:27:54.893Z,7.35
2022-10-23T16:30:22.982Z,10.20
2022-10-23T16:32:50.773Z,7.82
2022-10-23T16:35:17.614Z,6.78
2022-10-23T16:37:44.670Z,5.85
2022-10-23T16:40:11.926Z,8.15
2022-10-23T16:42:40.403Z,5.85
2022-10-23T16:45:08.358Z,12.00
2022-10-23T16:47:37.528Z,8.18
2022-10-23T16:50:04.502Z,7.80
2022-10-23T16:52:31.239Z,8.25
2022-10-23T16:55:01.928Z,7.05
2022-10-23T16:57:28.717Z,7.10
2022-10-23T16:59:55.535Z,7.82
2022-10-23T17:02:22.498Z,7.10
2022-10-23T17:04:49.453Z,6.63
2022-10-23T17:07:18.615Z,10.35
2022-10-23T17:09:46.729Z,8.88
2022-10-23T17:12:14.189Z,8.70
2022-10-23T17:14:40.961Z,11.73
2022-10-23T17:17:09.726Z,17.98
2022-10-23T17:19:45.229Z,21.23
2022-10-23T17:22:13.346Z,15.07
2022-10-23T17:24:41.869Z,21.70
2022-10-23T17:27:11.765Z,16.95
2022-10-23T17:29:38.586Z,9.57
2022-10-23T17:32:06.037Z,7.97
2022-10-23T17:34:32.917Z,9.18
2022-10-23T17:36:59.591Z,12.00
2022-10-23T17:39:29.315Z,9.32
2022-10-23T17:41:57.068Z,10.52
2022-10-23T17:44:23.958Z,11.15
2022-10-23T17:46:59.539Z,12.32
2022-10-23T17:49:27.325Z,6.47
2022-10-23T17:51:57.275Z,6.47
2022-10-23T17:54:27.676Z,7.13
2022-10-23T17:56:54.538Z,9.48
2022-10-23T17:59:24.120Z,6.77
2022-10-23T18:01:51.091Z,8.25
2022-10-23T18:04:19.769Z,8.98
2022-10-23T18:06:52.486Z,9.50
2022-10-23T18:09:20.336Z,9.00
2022-10-23T18:11:48.404Z,16.45
2022-10-23T18:14:17.746Z,11.77
2022-10-23T18:16:45.881Z,9.18
2022-10-23T18:19:14.177Z,9.98
2022-10-23T18:21:40.891Z,9.88
2022-10-23T18:24:07.737Z,8.05
2022-10-23T18:26:39.905Z,8.55
2022-10-23T18:29:07.629Z,9.88
2022-10-23T18:31:37.177Z,7.25
2022-10-23T18:34:14.903Z,7.40
2022-10-23T18:36:44.352Z,9.73
2022-10-23T18:39:14.836Z,9.63
2022-10-23T18:41:43.860Z,10.20
2022-10-23T18:44:19.227Z,9.63
2022-10-23T18:46:47.512Z,9.07
2022-10-23T18:49:14.760Z,9.90
2022-10-23T18:51:41.532Z,8.18
2022-10-23T18:54:12.815Z,9.05
2022-10-23T18:56:39.893Z,7.45
2022-10-23T18:59:10.186Z,7.97
2022-10-23T19:01:39.682Z,12.43
2022-10-23T19:04:07.303Z,7.87
2022-10-23T19:06:36.189Z,8.68
2022-10-23T19:09:04.834Z,10.05
2022-10-23T19:11:31.536Z,8.63
2022-10-23T19:13:58.366Z,8.43
2022-10-23T19:16:25.078Z,8.35
2022-10-23T19:19:07.123Z,8.77
2022-10-23T19:21:37.978Z,12.10
2022-10-23T19:24:12.240Z,8.80
2022-10-23T19:26:42.670Z,8.95
2022-10-23T19:31:38.129Z,9.95
2022-10-23T19:34:04.825Z,10.90
2022-10-23T19:36:31.941Z,8.30
2022-10-23T19:39:01.000Z,10.85
2022-10-23T19:41:32.797Z,16.40
2022-10-23T19:43:59.455Z,9.30
2022-10-23T19:46:27.094Z,9.35
2022-10-23T19:48:56.397Z,9.05
2022-10-23T19:51:25.386Z,10.43
2022-10-23T19:53:54.634Z,9.65
2022-10-23T19:56:21.881Z,8.77
2022-10-23T19:58:50.272Z,9.35
2022-10-23T20:01:21.631Z,9.45
2022-10-23T20:03:50.304Z,7.78
2022-10-23T20:06:21.374Z,9.68
2022-10-23T20:08:48.729Z,10.30
2022-10-23T20:11:20.237Z,10.98
2022-10-23T20:13:48.491Z,9.10
2022-10-23T20:16:20.768Z,8.27
2022-10-23T20:18:48.027Z,7.97
2022-10-23T20:21:15.410Z,10.35
2022-10-23T20:23:42.256Z,10.20
2022-10-23T20:26:18.387Z,10.57
2022-10-23T20:28:54.374Z,8.80
2022-10-23T20:31:24.148Z,7.03
2022-10-23T20:33:54.164Z,9.48
2022-10-23T20:36:35.583Z,8.88
2022-10-23T20:39:08.127Z,9.85
2022-10-23T20:41:37.262Z,8.95
2022-10-23T20:44:06.225Z,9.73
2022-10-23T20:46:33.144Z,8.60
2022-10-23T20:49:00.153Z,8.98
2022-10-23T20:51:27.044Z,7.60
2022-10-23T20:53:54.724Z,12.75
2022-10-23T20:56:31.261Z,10.65
2022-10-23T20:59:10.941Z,11.23
2022-10-23T21:01:40.872Z,7.50
2022-10-23T21:04:07.742Z,9.05
2022-10-23T21:06:51.931Z,9.90
2022-10-23T21:09:30.355Z,8.20
2022-10-23T21:11:57.099Z,8.75
2022-10-23T21:14:23.718Z,7.35
2022-10-23T21:16:50.339Z,7.85
2022-10-23T21:19:19.373Z,8.38
2022-10-23T21:21:45.977Z,8.63
2022-10-23T21:24:16.023Z,10.38
2022-10-23T21:26:43.241Z,7.78
2022-10-23T21:29:18.660Z,12.15
2022-10-23T21:31:54.095Z,10.65
2022-10-23T21:34:20.864Z,8.60
2022-10-23T21:37:10.815Z,7.53
2022-10-23T21:39:34.404Z,11.02
2022-10-23T21:42:01.373Z,9.13
2022-10-23T21:44:28.207Z,10.35
2022-10-23T21:46:55.376Z,6.70
2022-10-23T21:49:22.093Z,7.80
2022-10-23T21:51:48.798Z,8.57
2022-10-23T21:54:15.589Z,7.35
2022-10-23T21:56:48.174Z,7.65
2022-10-23T21:59:17.938Z,8.98
2022-10-23T22:01:46.534Z,9.18
2022-10-23T22:04:15.433Z,9.57
2022-10-23T22:06:43.095Z,9.02
2022-10-23T22:09:12.466Z,7.95
2022-10-23T22:11:42.201Z,7.03
2022-10-23T22:14:08.864Z,9.30
2022-10-23T22:16:35.640Z,8.13
2022-10-23T22:19:02.986Z,9.15
2022-10-23T22:21:33.321Z,9.27
2022-10-23T22:26:38.171Z,9.60
2022-10-23T22:29:08.135Z,7.03
2022-10-23T22:31:36.438Z,6.05
2022-10-23T22:34:13.339Z,7.35
2022-10-23T22:36:51.763Z,6.45
2022-10-23T22:39:18.932Z,7.15
2022-10-23T22:41:46.538Z,5.80
2022-10-23T22:44:14.862Z,7.38
2022-10-23T22:46:42.263Z,9.63
2022-10-23T22:49:09.465Z,6.63
2022-10-23T22:51:38.826Z,6.10
2022-10-23T22:54:05.810Z,5.70
2022-10-23T22:56:32.946Z,7.38
2022-10-23T22:58:59.739Z,13.57
2022-10-23T23:05:12.017Z,6.05
2022-10-23T23:07:38.674Z,5.88
2022-10-23T23:10:05.815Z,7.75
2022-10-23T23:12:32.556Z,7.55
2022-10-23T23:15:00.306Z,12.65
2022-10-23T23:21:28.224Z,8.73
2022-10-23T23:23:56.805Z,10.60
2022-10-23T23:26:23.868Z,9.55
2022-10-23T23:28:54.633Z,6.13
2022-10-23T23:31:25.286Z,10.10
2022-10-23T23:33:53.079Z,4.80
2022-10-23T23:36:23.226Z,6.40
2022-10-23T23:38:52.972Z,8.18
2022-10-23T23:41:21.314Z,4.78
2022-10-23T23:43:48.707Z,8.55
2022-10-23T23:46:16.548Z,4.53
2022-10-23T23:48:47.711Z,8.60
2022-10-23T23:51:16.259Z,5.35
2022-10-23T23:53:43.422Z,7.03
2022-10-23T23:56:13.201Z,9.40
2022-10-23T23:58:40.089Z,7.60
